createdAt,value
2023-05-23T00:02:35.055Z,6.82
2023-05-23T00:07:26.937Z,6.82
2023-05-23T00:12:19.634Z,7.05
2023-05-23T00:17:12.070Z,7.55
2023-05-23T00:22:04.322Z,7.35
2023-05-23T00:26:56.112Z,7.20
2023-05-23T00:31:47.939Z,7.10
2023-05-23T00:36:41.653Z,7.38
2023-05-23T00:41:33.367Z,7.75
2023-05-23T00:46:26.660Z,7.00
2023-05-23T00:51:18.972Z,8.32
2023-05-23T00:56:12.227Z,7.70
2023-05-23T01:01:04.205Z,7.63
2023-05-23T01:05:56.691Z,7.90
2023-05-23T01:10:49.591Z,8.23
2023-05-23T01:16:07.697Z,8.13
2023-05-23T01:21:17.919Z,8.18
2023-05-23T01:26:19.638Z,8.23
2023-05-23T01:31:12.942Z,8.25
2023-05-23T01:36:06.005Z,8.35
2023-05-23T01:40:57.934Z,8.55
2023-05-23T01:45:52.069Z,8.43
2023-05-23T01:50:48.002Z,8.20
2023-05-23T01:55:42.593Z,8.85
2023-05-23T02:00:34.577Z,8.68
2023-05-23T02:05:27.227Z,9.05
2023-05-23T02:10:19.579Z,8.30
2023-05-23T02:15:11.498Z,8.60
2023-05-23T02:20:04.006Z,8.38
2023-05-23T02:24:55.758Z,8.15
2023-05-23T02:29:47.557Z,8.32
2023-05-23T02:34:40.245Z,9.27
2023-05-23T02:39:32.104Z,9.20
2023-05-23T02:44:23.857Z,8.90
2023-05-23T02:49:15.600Z,8.40
2023-05-23T02:54:07.376Z,8.88
2023-05-23T02:58:59.085Z,9.43
2023-05-23T03:03:50.887Z,9.32
2023-05-23T03:08:43.680Z,9.70
2023-05-23T03:13:36.062Z,9.50
2023-05-23T03:18:27.910Z,9.20
2023-05-23T03:23:19.753Z,9.45
2023-05-23T03:28:14.352Z,9.73
2023-05-23T03:38:12.524Z,9.50
2023-05-23T03:43:06.775Z,9.52
2023-05-23T03:47:59.587Z,8.68
2023-05-23T03:52:51.432Z,9.50
2023-05-23T03:57:43.135Z,9.18
2023-05-23T10:21:19.810Z,13.38
2023-05-23T10:26:11.971Z,14.43
2023-05-23T10:31:04.588Z,14.25
2023-05-23T16:35:38.112Z,15.38
2023-05-23T16:40:29.886Z,14.02
2023-05-23T18:02:06.213Z,5.65
2023-05-23T18:06:57.938Z,5.82
2023-05-23T19:17:48.197Z,4.72
2023-05-23T19:33:24.075Z,4.03
2023-05-23T19:38:15.841Z,3.92
2023-05-23T20:21:13.751Z,4.60
2023-05-23T20:31:21.303Z,3.90
2023-05-23T20:41:20.998Z,4.18
2023-05-23T21:38:16.013Z,4.63
2023-05-23T21:53:20.558Z,6.10
2023-05-23T21:58:12.311Z,6.43
2023-05-23T22:24:26.981Z,7.40
2023-05-23T22:29:18.744Z,6.53
2023-05-23T22:34:10.457Z,6.20
2023-05-23T22:39:04.958Z,6.43
2023-05-23T22:43:57.058Z,6.65
2023-05-23T22:48:49.440Z,6.75
2023-05-23T22:53:41.474Z,6.60
2023-05-23T22:58:33.202Z,6.93
2023-05-23T23:35:27.857Z,5.95
2023-05-23T23:40:19.583Z,5.47
2023-05-23T23:45:11.566Z,6.13
2023-05-23T23:50:04.935Z,5.85
2023-05-23T23:54:56.688Z,6.22
2023-05-23T23:59:48.471Z,5.85
